createdAt,value
2019-02-17T00:01:07.715Z,59.25
2019-02-17T00:02:12.157Z,59.07
2019-02-17T00:03:16.426Z,58.95
2019-02-17T00:04:20.685Z,58.97
2019-02-17T00:05:24.687Z,58.91
2019-02-17T00:06:28.618Z,58.89
2019-02-17T00:07:32.546Z,58.99
2019-02-17T00:08:36.486Z,59.02
2019-02-17T00:09:40.416Z,59.18
2019-02-17T00:10:44.684Z,59.31
2019-02-17T00:11:48.855Z,59.48
2019-02-17T00:12:52.784Z,59.78
2019-02-17T00:13:56.838Z,60.04
2019-02-17T00:15:01.100Z,60.25
2019-02-17T00:16:05.101Z,60.44
2019-02-17T00:17:08.951Z,60.58
2019-02-17T00:18:12.806Z,60.67
2019-02-17T00:19:16.750Z,60.74
2019-02-17T00:20:20.754Z,60.77
2019-02-17T00:21:24.956Z,60.83
2019-02-17T00:22:29.160Z,60.88
2019-02-17T00:23:33.051Z,60.90
2019-02-17T00:24:37.270Z,60.92
2019-02-17T00:25:41.477Z,60.97
2019-02-17T00:26:45.732Z,60.97
2019-02-17T00:27:49.662Z,61.01
2019-02-17T00:28:59.539Z,61.03
2019-02-17T00:29:59.541Z,61.08
2019-02-17T00:31:03.832Z,61.10
2019-02-17T00:32:07.766Z,61.15
2019-02-17T00:33:11.784Z,61.31
2019-02-17T00:34:15.803Z,61.46
2019-02-17T00:35:19.973Z,61.61
2019-02-17T00:36:23.979Z,61.72
2019-02-17T00:37:27.906Z,61.80
2019-02-17T00:38:32.225Z,61.81
2019-02-17T00:39:36.351Z,61.83
2019-02-17T00:40:40.369Z,61.79
2019-02-17T00:41:44.368Z,61.77
2019-02-17T00:42:48.370Z,61.73
2019-02-17T00:43:52.218Z,61.75
2019-02-17T00:44:56.092Z,61.69
2019-02-17T00:46:00.314Z,61.58
2019-02-17T00:47:04.867Z,61.44
2019-02-17T00:48:08.789Z,61.32
2019-02-17T00:49:12.747Z,61.18
2019-02-17T00:50:16.749Z,61.06
2019-02-17T00:51:20.682Z,60.99
2019-02-17T00:52:24.943Z,60.86
2019-02-17T00:53:29.038Z,60.75
2019-02-17T00:54:33.053Z,60.65
2019-02-17T00:55:37.509Z,60.59
2019-02-17T00:56:41.513Z,60.52
2019-02-17T00:57:45.690Z,60.49
2019-02-17T00:58:49.618Z,60.55
2019-02-17T00:59:53.896Z,60.53
2019-02-17T01:00:58.073Z,60.54
2019-02-17T01:02:02.317Z,60.55
2019-02-17T01:03:06.318Z,60.61
2019-02-17T01:04:10.570Z,60.60
2019-02-17T01:05:14.836Z,60.57
2019-02-17T01:06:19.005Z,60.47
2019-02-17T01:07:23.258Z,60.41
2019-02-17T01:08:27.759Z,60.37
2019-02-17T01:09:31.771Z,60.38
2019-02-17T01:10:35.967Z,60.40
2019-02-17T01:11:40.174Z,60.26
2019-02-17T01:12:44.040Z,60.15
2019-02-17T01:13:48.051Z,60.11
2019-02-17T01:14:52.364Z,60.09
2019-02-17T01:15:56.405Z,60.16
2019-02-17T01:17:00.419Z,60.19
2019-02-17T01:18:04.689Z,60.16
2019-02-17T01:19:09.572Z,60.27
2019-02-17T01:20:13.814Z,60.46
2019-02-17T01:21:17.751Z,60.64
2019-02-17T01:22:21.895Z,60.76
2019-02-17T01:23:26.232Z,60.86
2019-02-17T01:24:30.425Z,60.97
2019-02-17T01:25:34.690Z,60.98
2019-02-17T01:26:38.949Z,60.86
2019-02-17T01:27:43.203Z,60.66
2019-02-17T01:28:47.787Z,60.48
2019-02-17T01:29:52.080Z,60.25
2019-02-17T01:30:56.099Z,60.07
2019-02-17T01:32:00.385Z,59.93
2019-02-17T01:33:04.729Z,59.79
2019-02-17T01:34:10.865Z,59.70
2019-02-17T01:35:14.872Z,59.63
2019-02-17T01:36:18.898Z,59.50
2019-02-17T01:37:23.186Z,59.44
2019-02-17T01:38:27.206Z,59.44
2019-02-17T01:39:31.208Z,59.43
2019-02-17T01:40:35.226Z,59.40
2019-02-17T01:41:39.234Z,59.44
2019-02-17T01:42:43.252Z,59.46
2019-02-17T01:43:47.470Z,59.50
2019-02-17T01:44:51.485Z,59.57
2019-02-17T01:45:55.517Z,59.60
2019-02-17T01:46:59.451Z,59.65
2019-02-17T01:48:04.138Z,59.61
2019-02-17T01:49:08.408Z,59.55
2019-02-17T01:50:12.769Z,59.48
2019-02-17T01:51:17.008Z,59.51
2019-02-17T01:52:21.214Z,59.58
2019-02-17T01:53:25.236Z,59.67
2019-02-17T01:54:29.166Z,59.69
2019-02-17T01:55:33.182Z,59.79
2019-02-17T01:56:37.136Z,59.90
2019-02-17T01:57:41.533Z,60.00
2019-02-17T01:58:46.073Z,60.11
2019-02-17T01:59:50.017Z,60.26
2019-02-17T02:00:53.951Z,60.25
2019-02-17T02:01:57.900Z,60.26
2019-02-17T02:03:01.836Z,60.28
2019-02-17T02:04:05.929Z,60.36
2019-02-17T02:05:10.041Z,60.47
2019-02-17T02:06:14.173Z,60.53
2019-02-17T02:07:18.454Z,60.60
2019-02-17T02:08:22.762Z,60.67
2019-02-17T02:09:27.070Z,60.79
2019-02-17T02:10:31.438Z,60.80
2019-02-17T02:11:35.386Z,60.85
2019-02-17T02:12:39.794Z,60.95
2019-02-17T02:13:44.097Z,61.05
2019-02-17T02:14:48.507Z,61.16
2019-02-17T02:15:52.451Z,61.29
2019-02-17T02:16:56.474Z,61.42
2019-02-17T02:18:00.415Z,61.52
2019-02-17T02:19:04.528Z,61.57
2019-02-17T02:20:09.997Z,61.72
2019-02-17T02:21:13.938Z,61.77
2019-02-17T02:22:17.810Z,61.84
2019-02-17T02:23:22.094Z,61.91
2019-02-17T02:24:26.035Z,61.95
2019-02-17T02:25:30.362Z,62.00
2019-02-17T02:26:34.671Z,62.04
2019-02-17T02:27:38.947Z,62.09
2019-02-17T02:28:43.374Z,62.13
2019-02-17T02:29:47.310Z,62.19
2019-02-17T02:30:51.557Z,62.22
2019-02-17T02:31:55.927Z,62.21
2019-02-17T02:32:59.801Z,62.17
2019-02-17T02:34:03.801Z,62.13
2019-02-17T02:35:08.142Z,62.08
2019-02-17T02:36:12.145Z,62.11
2019-02-17T02:37:16.422Z,62.13
2019-02-17T02:38:20.670Z,62.20
2019-02-17T02:39:24.603Z,62.21
2019-02-17T02:40:28.830Z,62.30
2019-02-17T02:41:34.959Z,62.50
2019-02-17T02:42:38.503Z,62.54
2019-02-17T02:43:42.694Z,62.57
2019-02-17T02:44:48.614Z,62.67
2019-02-17T02:45:52.943Z,62.73
2019-02-17T02:46:57.206Z,62.82
2019-02-17T02:48:01.564Z,63.01
2019-02-17T02:49:06.207Z,63.06
2019-02-17T02:50:10.984Z,63.22
2019-02-17T02:51:15.048Z,63.43
2019-02-17T02:52:19.290Z,63.77
2019-02-17T02:53:23.289Z,64.06
2019-02-17T02:54:27.480Z,64.46
2019-02-17T02:55:31.807Z,64.78
2019-02-17T02:56:36.160Z,65.08
2019-02-17T02:57:40.523Z,65.31
2019-02-17T02:58:44.650Z,65.61
2019-02-17T02:59:52.439Z,65.57
2019-02-17T03:00:54.915Z,65.61
2019-02-17T03:01:59.453Z,65.55
2019-02-17T03:03:03.427Z,65.53
2019-02-17T03:04:07.430Z,65.55
2019-02-17T03:05:11.704Z,65.41
2019-02-17T03:06:33.627Z,65.44
2019-02-17T03:07:38.139Z,65.55
2019-02-17T03:08:42.007Z,65.74
2019-02-17T03:09:46.347Z,65.88
2019-02-17T03:10:50.361Z,65.96
2019-02-17T03:11:54.552Z,66.05
2019-02-17T03:12:58.883Z,66.12
2019-02-17T03:14:02.895Z,66.12
2019-02-17T03:15:07.107Z,66.12
2019-02-17T03:16:11.044Z,66.11
2019-02-17T03:17:14.989Z,66.17
2019-02-17T03:18:19.190Z,66.26
2019-02-17T03:19:23.807Z,66.25
2019-02-17T03:20:28.155Z,66.31
2019-02-17T03:21:32.094Z,66.39
2019-02-17T03:22:36.402Z,66.50
2019-02-17T03:23:40.786Z,66.53
2019-02-17T03:24:45.128Z,66.63
2019-02-17T03:25:49.683Z,66.58
2019-02-17T03:26:53.689Z,66.64
2019-02-17T03:27:57.554Z,66.63
2019-02-17T03:29:02.072Z,66.65
2019-02-17T03:30:07.297Z,66.74
2019-02-17T03:31:11.237Z,66.80
2019-02-17T03:32:15.505Z,66.81
2019-02-17T03:33:19.487Z,66.96
2019-02-17T03:34:23.506Z,66.96
2019-02-17T03:35:27.359Z,66.96
2019-02-17T03:36:31.350Z,66.90
2019-02-17T03:37:35.208Z,66.96
2019-02-17T03:38:39.328Z,67.01
2019-02-17T03:39:43.497Z,67.16
2019-02-17T03:40:47.497Z,67.22
2019-02-17T03:41:51.351Z,67.31
2019-02-17T03:42:55.518Z,67.40
2019-02-17T03:43:59.394Z,67.46
2019-02-17T03:45:03.400Z,67.47
2019-02-17T03:46:07.540Z,67.42
2019-02-17T03:47:11.544Z,67.42
2019-02-17T03:48:15.484Z,67.43
2019-02-17T03:49:19.770Z,67.46
2019-02-17T03:50:23.694Z,67.50
2019-02-17T03:51:27.869Z,67.56
2019-02-17T03:52:32.061Z,67.55
2019-02-17T03:53:36.028Z,67.64
2019-02-17T03:54:40.531Z,67.70
2019-02-17T03:55:44.778Z,67.78
2019-02-17T03:56:48.784Z,67.90
2019-02-17T03:57:52.858Z,68.00
2019-02-17T03:58:56.798Z,68.05
2019-02-17T04:00:00.721Z,68.00
2019-02-17T04:01:04.963Z,67.93
2019-02-17T04:02:09.251Z,67.92
2019-02-17T04:03:13.318Z,67.97
2019-02-17T04:04:17.559Z,68.00
2019-02-17T04:05:22.098Z,68.06
2019-02-17T04:06:26.270Z,68.12
2019-02-17T04:07:30.484Z,68.07
2019-02-17T04:08:34.397Z,67.96
2019-02-17T04:09:38.998Z,67.89
2019-02-17T04:10:43.022Z,67.90
2019-02-17T04:11:47.074Z,67.84
2019-02-17T04:12:51.410Z,67.71
2019-02-17T04:13:55.864Z,67.76
2019-02-17T04:15:00.594Z,67.71
2019-02-17T04:16:04.947Z,67.59
2019-02-17T04:17:09.563Z,67.51
2019-02-17T04:18:13.826Z,67.50
2019-02-17T04:19:18.180Z,67.49
2019-02-17T04:20:22.811Z,67.55
2019-02-17T04:21:27.101Z,67.69
2019-02-17T04:22:31.781Z,67.73
2019-02-17T04:23:35.642Z,67.79
2019-02-17T04:24:40.054Z,67.94
2019-02-17T04:25:44.065Z,67.93
2019-02-17T04:26:48.347Z,67.82
2019-02-17T04:27:52.346Z,67.93
2019-02-17T04:28:56.550Z,68.04
2019-02-17T04:30:00.957Z,68.00
2019-02-17T04:31:04.948Z,68.04
2019-02-17T04:32:09.023Z,68.12
2019-02-17T04:33:12.977Z,68.15
2019-02-17T04:34:17.370Z,68.21
2019-02-17T04:35:21.319Z,68.20
2019-02-17T04:36:25.257Z,68.21
2019-02-17T04:37:29.574Z,68.19
2019-02-17T04:38:33.509Z,68.12
2019-02-17T04:39:37.523Z,68.14
2019-02-17T04:40:41.800Z,68.12
2019-02-17T04:41:46.092Z,68.09
2019-02-17T04:42:50.295Z,68.14
2019-02-17T04:43:54.315Z,68.20
2019-02-17T04:44:58.200Z,68.22
2019-02-17T04:46:02.504Z,68.24
2019-02-17T04:47:06.813Z,68.42
2019-02-17T04:48:10.753Z,68.40
2019-02-17T04:49:15.046Z,68.46
2019-02-17T04:50:19.066Z,68.45
2019-02-17T04:51:22.933Z,68.46
2019-02-17T04:52:26.866Z,68.41
2019-02-17T04:53:31.653Z,68.47
2019-02-17T04:54:35.587Z,68.59
2019-02-17T04:55:39.611Z,68.58
2019-02-17T04:56:43.906Z,68.59
2019-02-17T04:57:47.852Z,68.68
2019-02-17T04:58:51.788Z,68.69
2019-02-17T04:59:56.009Z,68.73
2019-02-17T05:01:00.234Z,68.71
2019-02-17T05:02:04.143Z,68.72
2019-02-17T05:03:08.479Z,68.78
2019-02-17T05:04:12.778Z,68.82
2019-02-17T05:05:16.798Z,68.91
2019-02-17T05:06:21.086Z,68.96
2019-02-17T05:07:25.098Z,68.80
2019-02-17T05:08:29.026Z,68.86
2019-02-17T05:09:33.299Z,68.94
2019-02-17T05:10:37.401Z,69.01
2019-02-17T05:11:41.383Z,69.11
2019-02-17T05:12:45.400Z,69.12
2019-02-17T05:13:49.425Z,69.11
2019-02-17T05:14:53.712Z,69.11
2019-02-17T05:15:57.754Z,69.00
2019-02-17T05:17:01.628Z,68.96
2019-02-17T05:18:05.657Z,68.89
2019-02-17T05:19:09.706Z,68.89
2019-02-17T05:20:13.732Z,68.84
2019-02-17T05:21:17.755Z,68.70
2019-02-17T05:22:22.121Z,68.68
2019-02-17T05:23:26.063Z,68.70
2019-02-17T05:24:30.266Z,68.54
2019-02-17T05:25:34.852Z,68.36
2019-02-17T05:26:39.144Z,68.37
2019-02-17T05:27:43.356Z,68.46
2019-02-17T05:28:47.372Z,68.50
2019-02-17T05:29:51.392Z,68.43
2019-02-17T05:30:55.433Z,68.40
2019-02-17T05:31:59.610Z,68.35
2019-02-17T05:33:04.486Z,68.27
2019-02-17T05:34:08.434Z,68.20
2019-02-17T05:35:12.753Z,68.12
2019-02-17T05:36:16.783Z,68.06
2019-02-17T05:37:21.412Z,68.00
2019-02-17T05:38:25.349Z,67.99
2019-02-17T05:39:29.925Z,67.94
2019-02-17T05:40:36.417Z,67.88
2019-02-17T05:41:40.393Z,67.89
2019-02-17T05:42:44.795Z,67.88
2019-02-17T05:43:48.826Z,67.90
2019-02-17T05:44:52.756Z,67.84
2019-02-17T05:45:57.163Z,67.77
2019-02-17T05:47:01.040Z,67.77
2019-02-17T05:48:05.105Z,67.73
2019-02-17T05:49:09.414Z,67.67
2019-02-17T05:50:13.660Z,67.64
2019-02-17T05:51:17.671Z,67.67
2019-02-17T05:52:21.871Z,67.72
2019-02-17T05:53:26.046Z,67.66
2019-02-17T05:54:30.410Z,67.55
2019-02-17T05:55:34.918Z,67.60
2019-02-17T05:56:38.872Z,67.74
2019-02-17T05:57:42.802Z,68.00
2019-02-17T05:58:47.315Z,68.08
2019-02-17T05:59:51.418Z,68.24
2019-02-17T06:01:03.207Z,68.44
2019-02-17T06:02:01.217Z,68.53
2019-02-17T06:03:05.473Z,68.54
2019-02-17T06:04:09.672Z,68.40
2019-02-17T06:05:13.672Z,68.38
2019-02-17T06:06:17.982Z,68.46
2019-02-17T06:07:21.944Z,68.39
2019-02-17T06:08:25.873Z,68.38
2019-02-17T06:09:30.119Z,68.23
2019-02-17T06:10:34.369Z,68.27
2019-02-17T06:11:38.236Z,68.26
2019-02-17T06:12:42.439Z,68.27
2019-02-17T06:13:46.449Z,68.31
2019-02-17T06:14:51.064Z,68.22
2019-02-17T06:15:54.982Z,68.32
2019-02-17T06:16:59.015Z,68.32
2019-02-17T06:18:03.374Z,68.36
2019-02-17T06:19:07.495Z,68.35
2019-02-17T06:20:11.702Z,68.29
2019-02-17T06:21:16.196Z,68.27
2019-02-17T06:22:20.396Z,68.26
2019-02-17T06:23:24.499Z,68.26
2019-02-17T06:24:28.675Z,68.30
2019-02-17T06:25:32.890Z,68.23
2019-02-17T06:26:36.906Z,68.26
2019-02-17T06:27:41.533Z,68.29
2019-02-17T06:28:45.390Z,68.23
2019-02-17T06:29:49.628Z,68.27
2019-02-17T06:30:53.482Z,68.31
2019-02-17T06:31:57.415Z,68.49
2019-02-17T06:33:01.565Z,68.59
2019-02-17T06:34:05.577Z,68.71
2019-02-17T06:35:09.634Z,68.75
2019-02-17T06:36:13.562Z,68.81
2019-02-17T06:37:17.808Z,68.90
2019-02-17T06:38:21.936Z,68.95
2019-02-17T06:39:26.621Z,68.94
2019-02-17T06:40:31.003Z,68.83
2019-02-17T06:41:34.872Z,68.84
2019-02-17T06:42:38.813Z,68.86
2019-02-17T06:43:43.079Z,68.76
2019-02-17T06:44:47.594Z,68.44
2019-02-17T06:45:51.903Z,68.31
2019-02-17T06:46:59.316Z,68.15
2019-02-17T06:48:03.265Z,68.01
2019-02-17T06:49:07.363Z,68.12
2019-02-17T06:50:11.582Z,68.06
2019-02-17T06:51:15.800Z,68.00
2019-02-17T06:52:20.094Z,68.01
2019-02-17T06:53:24.039Z,67.91
2019-02-17T06:54:28.202Z,67.85
2019-02-17T06:55:45.602Z,67.94
2019-02-17T06:56:59.322Z,67.92
2019-02-17T06:58:03.341Z,67.92
2019-02-17T06:59:07.551Z,67.92
2019-02-17T07:00:24.976Z,67.91
2019-02-17T07:01:29.083Z,67.93
2019-02-17T07:02:33.322Z,68.00
2019-02-17T07:03:38.076Z,68.12
2019-02-17T07:05:16.527Z,68.10
2019-02-17T07:06:27.110Z,68.08
2019-02-17T07:07:31.380Z,68.15
2019-02-17T07:08:35.322Z,68.11
2019-02-17T07:09:39.250Z,68.01
2019-02-17T07:10:43.257Z,67.84
2019-02-17T07:11:47.325Z,67.63
2019-02-17T07:12:51.237Z,67.49
2019-02-17T07:13:55.535Z,67.47
2019-02-17T07:15:00.103Z,67.42
2019-02-17T07:16:04.542Z,67.32
2019-02-17T07:17:08.717Z,67.31
2019-02-17T07:18:12.664Z,67.38
2019-02-17T07:19:16.759Z,67.41
2019-02-17T07:20:20.687Z,67.36
2019-02-17T07:21:24.870Z,67.37
2019-02-17T07:22:29.117Z,67.21
2019-02-17T07:23:33.306Z,67.22
2019-02-17T07:24:37.403Z,67.29
2019-02-17T07:25:41.650Z,67.26
2019-02-17T07:26:45.828Z,67.03
2019-02-17T07:27:49.834Z,67.11
2019-02-17T07:28:53.854Z,67.10
2019-02-17T07:29:58.026Z,67.12
2019-02-17T07:31:01.954Z,67.26
2019-02-17T07:32:05.839Z,67.19
2019-02-17T07:33:10.203Z,67.04
2019-02-17T07:34:14.238Z,67.10
2019-02-17T07:35:18.411Z,67.17
2019-02-17T07:36:22.594Z,67.21
2019-02-17T07:37:33.493Z,67.29
2019-02-17T07:38:32.373Z,67.27
2019-02-17T07:39:36.673Z,67.15
2019-02-17T07:40:40.848Z,66.91
2019-02-17T07:41:45.014Z,66.96
2019-02-17T07:42:49.292Z,66.90
2019-02-17T07:43:53.640Z,67.00
2019-02-17T07:44:57.747Z,66.79
2019-02-17T07:46:01.789Z,66.75
2019-02-17T07:47:06.366Z,66.52
2019-02-17T07:48:10.371Z,66.54
2019-02-17T07:49:14.892Z,66.56
2019-02-17T07:50:18.900Z,66.66
2019-02-17T07:51:23.203Z,66.77
2019-02-17T07:52:27.135Z,66.81
2019-02-17T07:53:31.138Z,66.87
2019-02-17T07:54:35.386Z,66.86
2019-02-17T07:55:39.608Z,66.87
2019-02-17T07:56:43.470Z,66.93
2019-02-17T07:57:47.715Z,66.94
2019-02-17T07:58:52.332Z,66.93
2019-02-17T07:59:56.635Z,66.94
2019-02-17T08:01:00.642Z,67.06
2019-02-17T08:02:04.648Z,67.14
2019-02-17T08:03:08.852Z,66.96
2019-02-17T08:04:13.354Z,66.91
2019-02-17T08:05:17.554Z,66.91
2019-02-17T08:06:21.827Z,66.94
2019-02-17T08:07:26.189Z,66.89
2019-02-17T08:08:30.596Z,66.98
2019-02-17T08:09:34.543Z,67.05
2019-02-17T08:10:38.543Z,67.03
2019-02-17T08:11:42.910Z,66.92
2019-02-17T08:12:47.199Z,66.73
2019-02-17T08:13:51.213Z,66.38
2019-02-17T08:14:55.856Z,66.42
2019-02-17T08:16:00.038Z,66.17
2019-02-17T08:17:03.960Z,66.25
2019-02-17T08:18:08.290Z,66.13
2019-02-17T08:19:12.218Z,66.15
2019-02-17T08:20:16.554Z,66.47
2019-02-17T08:21:20.404Z,66.44
2019-02-17T08:22:24.647Z,66.42
2019-02-17T08:23:29.586Z,66.42
2019-02-17T08:24:33.777Z,66.54
2019-02-17T08:25:38.299Z,66.77
2019-02-17T08:26:42.434Z,66.86
2019-02-17T08:27:46.361Z,66.85
2019-02-17T08:28:50.913Z,66.82
2019-02-17T08:29:55.250Z,66.81
2019-02-17T08:30:59.194Z,66.73
2019-02-17T08:32:03.526Z,66.75
2019-02-17T08:33:07.546Z,66.70
2019-02-17T08:34:12.446Z,66.71
2019-02-17T08:35:16.792Z,66.66
2019-02-17T08:36:20.723Z,66.61
2019-02-17T08:37:24.974Z,66.59
2019-02-17T08:38:29.142Z,66.65
2019-02-17T08:39:33.557Z,66.62
2019-02-17T08:40:37.759Z,66.55
2019-02-17T08:41:41.689Z,66.45
2019-02-17T08:42:45.939Z,66.33
2019-02-17T08:43:50.044Z,66.16
2019-02-17T08:44:54.155Z,66.21
2019-02-17T08:45:58.345Z,66.07
2019-02-17T08:47:02.353Z,66.00
2019-02-17T08:48:06.617Z,66.18
2019-02-17T08:49:10.474Z,66.28
2019-02-17T08:50:14.496Z,66.21
2019-02-17T08:51:18.438Z,66.12
2019-02-17T08:52:22.776Z,66.09
2019-02-17T08:53:26.799Z,66.13
2019-02-17T08:54:30.658Z,66.10
2019-02-17T08:55:34.542Z,66.02
2019-02-17T08:56:38.594Z,66.05
2019-02-17T08:57:42.823Z,65.99
2019-02-17T08:58:47.017Z,66.10
2019-02-17T08:59:51.131Z,66.14
2019-02-17T09:00:55.343Z,66.24
2019-02-17T09:02:06.033Z,66.15
2019-02-17T09:03:05.337Z,66.16
2019-02-17T09:04:09.192Z,66.07
2019-02-17T09:05:13.119Z,65.91
2019-02-17T09:06:17.139Z,65.81
2019-02-17T09:07:21.332Z,65.80
2019-02-17T09:08:25.759Z,65.65
2019-02-17T09:09:29.685Z,65.46
2019-02-17T09:10:33.617Z,65.08
2019-02-17T09:11:37.630Z,65.05
2019-02-17T09:12:41.810Z,65.03
2019-02-17T09:13:45.926Z,65.01
2019-02-17T09:14:50.220Z,65.07
2019-02-17T09:15:54.135Z,65.07
2019-02-17T09:16:58.165Z,65.41
2019-02-17T09:18:02.108Z,65.51
2019-02-17T09:19:06.423Z,65.44
2019-02-17T09:20:11.462Z,65.29
2019-02-17T09:21:15.471Z,65.30
2019-02-17T09:22:19.779Z,65.45
2019-02-17T09:23:24.032Z,65.31
2019-02-17T09:24:28.866Z,65.11
2019-02-17T09:25:33.194Z,65.23
2019-02-17T09:26:37.223Z,65.33
2019-02-17T09:27:41.814Z,65.33
2019-02-17T09:28:45.823Z,65.13
2019-02-17T09:29:50.194Z,65.01
2019-02-17T09:30:54.727Z,64.70
2019-02-17T09:31:59.521Z,64.72
2019-02-17T09:33:03.499Z,64.64
2019-02-17T09:34:07.509Z,64.62
2019-02-17T09:35:11.883Z,64.33
2019-02-17T09:36:16.161Z,63.99
2019-02-17T09:37:20.713Z,64.16
2019-02-17T09:38:24.938Z,64.27
2019-02-17T09:39:28.884Z,64.21
2019-02-17T09:40:33.322Z,64.06
2019-02-17T09:41:37.714Z,64.12
2019-02-17T09:42:41.982Z,64.30
2019-02-17T09:43:46.085Z,64.31
2019-02-17T09:44:50.106Z,64.05
2019-02-17T09:45:54.847Z,64.04
2019-02-17T09:46:58.998Z,64.09
2019-02-17T09:48:03.478Z,63.83
2019-02-17T09:49:08.376Z,63.38
2019-02-17T09:50:14.485Z,63.23
2019-02-17T09:51:18.921Z,62.99
2019-02-17T09:52:23.279Z,63.06
2019-02-17T09:53:27.976Z,63.22
2019-02-17T09:54:33.226Z,63.38
2019-02-17T09:55:37.253Z,63.30
2019-02-17T09:56:42.135Z,62.73
2019-02-17T09:57:46.278Z,62.50
2019-02-17T09:58:50.643Z,62.37
2019-02-17T09:59:54.610Z,62.60
2019-02-17T10:00:59.359Z,62.60
2019-02-17T10:02:03.771Z,62.68
2019-02-17T10:03:07.803Z,62.70
2019-02-17T10:04:12.147Z,62.62
2019-02-17T10:05:16.387Z,62.78
2019-02-17T10:06:20.458Z,62.78
2019-02-17T10:07:24.395Z,62.83
2019-02-17T10:08:28.423Z,62.72
2019-02-17T10:09:32.814Z,62.43
2019-02-17T10:10:36.750Z,62.16
2019-02-17T10:11:40.974Z,62.06
2019-02-17T10:12:44.988Z,61.67
2019-02-17T10:13:49.319Z,61.56
2019-02-17T10:14:53.343Z,61.53
2019-02-17T10:15:57.723Z,61.51
2019-02-17T10:17:01.672Z,61.39
2019-02-17T10:18:05.644Z,61.49
2019-02-17T10:19:09.726Z,60.92
2019-02-17T10:20:13.767Z,60.92
2019-02-17T10:21:17.774Z,60.60
2019-02-17T10:22:22.035Z,60.86
2019-02-17T10:23:26.343Z,60.97
2019-02-17T10:24:30.344Z,60.96
2019-02-17T10:25:34.863Z,61.00
2019-02-17T10:26:39.071Z,60.77
2019-02-17T10:27:43.012Z,60.02
2019-02-17T10:28:47.287Z,60.24
2019-02-17T10:29:51.692Z,60.28
2019-02-17T10:30:55.951Z,60.33
2019-02-17T10:31:59.965Z,60.40
2019-02-17T10:33:03.976Z,60.43
2019-02-17T10:34:08.001Z,60.22
2019-02-17T10:35:12.317Z,60.12
2019-02-17T10:36:16.670Z,60.15
2019-02-17T10:37:20.933Z,59.92
2019-02-17T10:38:24.877Z,59.83
2019-02-17T10:39:29.241Z,59.75
2019-02-17T10:40:33.436Z,59.64
2019-02-17T10:41:37.979Z,59.39
2019-02-17T10:42:41.947Z,59.22
2019-02-17T10:43:46.339Z,59.09
2019-02-17T10:44:50.573Z,58.94
2019-02-17T10:45:54.977Z,58.78
2019-02-17T10:46:58.975Z,58.81
2019-02-17T10:48:03.590Z,58.53
2019-02-17T10:49:07.674Z,58.75
2019-02-17T10:50:12.108Z,58.71
2019-02-17T10:51:16.111Z,58.43
2019-02-17T10:52:20.465Z,58.45
2019-02-17T10:53:24.662Z,58.34
2019-02-17T10:54:28.850Z,58.25
2019-02-17T10:55:33.023Z,58.15
2019-02-17T10:56:37.028Z,57.83
2019-02-17T10:57:41.201Z,57.58
2019-02-17T10:58:45.212Z,57.58
2019-02-17T10:59:49.162Z,57.34
2019-02-17T11:00:53.485Z,57.16
2019-02-17T11:01:57.735Z,57.15
2019-02-17T11:03:07.682Z,57.12
2019-02-17T11:04:12.058Z,57.02
2019-02-17T11:05:16.376Z,57.01
2019-02-17T11:06:20.378Z,56.77
2019-02-17T11:07:24.626Z,56.63
2019-02-17T11:08:28.550Z,56.42
2019-02-17T11:09:33.131Z,56.26
2019-02-17T11:10:37.644Z,56.23
2019-02-17T11:11:41.820Z,55.46
2019-02-17T11:12:45.830Z,55.57
2019-02-17T11:13:49.838Z,55.93
2019-02-17T11:14:54.362Z,55.86
2019-02-17T11:15:58.978Z,55.56
2019-02-17T11:17:03.051Z,54.88
2019-02-17T11:18:07.304Z,54.68
2019-02-17T11:19:11.363Z,54.62
2019-02-17T11:20:15.724Z,54.58
2019-02-17T11:21:20.007Z,54.54
2019-02-17T11:22:24.027Z,54.26
2019-02-17T11:23:28.216Z,54.01
2019-02-17T11:24:32.154Z,54.22
2019-02-17T11:25:36.175Z,54.10
2019-02-17T11:26:40.117Z,54.09
2019-02-17T11:27:44.730Z,54.08
2019-02-17T11:28:49.040Z,54.04
2019-02-17T11:29:53.406Z,53.96
2019-02-17T11:30:57.439Z,53.72
2019-02-17T11:32:01.447Z,54.01
2019-02-17T11:33:05.475Z,54.05
2019-02-17T11:34:09.690Z,54.07
2019-02-17T11:35:13.893Z,53.66
2019-02-17T11:36:17.945Z,53.35
2019-02-17T11:37:22.273Z,53.09
2019-02-17T11:38:26.314Z,52.84
2019-02-17T11:39:30.367Z,52.96
2019-02-17T11:40:34.707Z,52.76
2019-02-17T11:41:39.098Z,53.11
2019-02-17T11:42:43.414Z,53.05
2019-02-17T11:43:47.508Z,52.73
2019-02-17T11:44:51.582Z,52.22
2019-02-17T11:45:56.621Z,52.26
2019-02-17T11:47:00.937Z,52.38
2019-02-17T11:48:05.360Z,52.70
2019-02-17T11:49:09.686Z,52.23
2019-02-17T11:50:15.661Z,51.88
2019-02-17T11:51:19.458Z,51.72
2019-02-17T11:52:23.519Z,51.72
2019-02-17T11:53:27.565Z,51.53
2019-02-17T11:54:32.332Z,51.16
2019-02-17T11:55:37.163Z,51.34
2019-02-17T11:56:41.879Z,50.93
2019-02-17T11:57:46.243Z,50.88
2019-02-17T11:58:50.597Z,50.92
2019-02-17T11:59:55.010Z,50.93
2019-02-17T12:00:59.085Z,50.37
2019-02-17T12:02:03.826Z,50.46
2019-02-17T12:03:08.561Z,50.38
2019-02-17T12:04:12.626Z,50.25
2019-02-17T12:05:16.955Z,50.40
2019-02-17T12:06:20.952Z,50.16
2019-02-17T12:07:25.280Z,49.50
2019-02-17T12:08:29.347Z,49.52
2019-02-17T12:09:33.797Z,49.63
2019-02-17T12:10:38.201Z,49.34
2019-02-17T12:11:42.645Z,49.33
2019-02-17T12:12:47.330Z,49.43
2019-02-17T12:13:51.724Z,49.25
2019-02-17T12:14:56.138Z,49.68
2019-02-17T12:16:00.184Z,49.32
2019-02-17T12:17:04.656Z,49.30
2019-02-17T12:18:09.078Z,48.97
2019-02-17T12:19:13.111Z,48.92
2019-02-17T12:20:41.154Z,48.89
2019-02-17T12:21:50.175Z,48.65
2019-02-17T12:22:59.644Z,48.34
2019-02-17T12:24:31.965Z,48.53
2019-02-17T12:25:49.658Z,48.14
2019-02-17T12:26:59.437Z,48.51
2019-02-17T12:28:07.792Z,48.26
2019-02-17T12:29:19.452Z,47.99
2019-02-17T12:30:24.975Z,47.86
2019-02-17T12:31:33.490Z,47.14
2019-02-17T12:32:37.551Z,47.19
2019-02-17T12:33:41.627Z,47.30
2019-02-17T12:34:45.697Z,47.47
2019-02-17T12:35:49.742Z,47.70
2019-02-17T12:36:53.808Z,47.66
2019-02-17T12:37:58.112Z,47.75
2019-02-17T12:39:02.174Z,47.65
2019-02-17T12:40:09.290Z,47.26
2019-02-17T12:41:13.313Z,46.92
2019-02-17T12:42:17.354Z,46.80
2019-02-17T12:43:21.287Z,46.56
2019-02-17T12:44:25.313Z,46.90
2019-02-17T12:45:29.632Z,46.84
2019-02-17T12:46:33.636Z,46.94
2019-02-17T12:47:37.835Z,46.91
2019-02-17T12:48:41.956Z,47.27
2019-02-17T12:49:46.155Z,47.44
2019-02-17T12:50:50.089Z,47.25
2019-02-17T12:51:54.673Z,47.04
2019-02-17T12:52:58.699Z,46.67
2019-02-17T12:54:02.707Z,46.71
2019-02-17T12:55:07.185Z,46.42
2019-02-17T12:56:11.488Z,46.79
2019-02-17T12:57:15.423Z,46.87
2019-02-17T12:58:29.395Z,46.22
2019-02-17T12:59:25.733Z,46.44
2019-02-17T13:00:30.042Z,46.52
2019-02-17T13:01:34.224Z,46.46
2019-02-17T13:02:38.408Z,46.40
2019-02-17T13:03:42.968Z,46.10
2019-02-17T13:04:47.172Z,45.96
2019-02-17T13:05:51.382Z,46.21
2019-02-17T13:06:55.584Z,45.65
2019-02-17T13:07:59.892Z,45.65
2019-02-17T13:09:05.572Z,45.93
2019-02-17T13:10:10.564Z,45.88
2019-02-17T13:11:14.764Z,45.29
2019-02-17T13:12:19.173Z,45.63
2019-02-17T13:13:23.481Z,45.58
2019-02-17T13:14:27.842Z,45.88
2019-02-17T13:15:32.315Z,45.85
2019-02-17T13:16:36.259Z,45.56
2019-02-17T13:17:40.269Z,45.75
2019-02-17T13:18:44.148Z,45.57
2019-02-17T13:19:48.092Z,45.44
2019-02-17T13:20:52.104Z,45.43
2019-02-17T13:21:56.125Z,45.58
2019-02-17T13:23:00.412Z,45.67
2019-02-17T13:24:04.682Z,45.76
2019-02-17T13:25:09.976Z,45.43
2019-02-17T13:26:14.263Z,45.29
2019-02-17T13:27:18.275Z,44.97
2019-02-17T13:28:22.565Z,44.92
2019-02-17T13:29:26.512Z,45.02
2019-02-17T13:30:30.790Z,44.59
2019-02-17T13:31:34.730Z,44.77
2019-02-17T13:32:39.010Z,44.86
2019-02-17T13:33:43.027Z,44.65
2019-02-17T13:34:48.464Z,44.79
2019-02-17T13:35:52.381Z,44.83
2019-02-17T13:36:56.427Z,44.66
2019-02-17T13:38:00.696Z,44.65
2019-02-17T13:39:06.714Z,44.87
2019-02-17T13:40:11.754Z,44.68
2019-02-17T13:41:16.105Z,44.35
2019-02-17T13:42:20.418Z,43.83
2019-02-17T13:43:24.635Z,43.68
2019-02-17T13:44:28.825Z,43.64
2019-02-17T13:45:32.770Z,43.92
2019-02-17T13:46:37.201Z,44.33
2019-02-17T13:47:41.476Z,44.51
2019-02-17T13:48:45.528Z,44.15
2019-02-17T13:49:49.788Z,43.98
2019-02-17T13:50:54.063Z,43.86